sensor_id;sensor_type;location;lat;lon;timestamp;temperature;humidity
4399;DHT22;2213;49.720;7.296;2023-04-01T00:01:36;9.80;99.90
4399;DHT22;2213;49.720;7.296;2023-04-01T00:04:05;9.80;99.90
4399;DHT22;2213;49.720;7.296;2023-04-01T00:06:33;9.80;99.90
4399;DHT22;2213;49.720;7.296;2023-04-01T00:09:03;9.80;99.90
4399;DHT22;2213;49.720;7.296;2023-04-01T00:11:32;9.80;99.90
4399;DHT22;2213;49.720;7.296;2023-04-01T00:14:02;9.80;99.90
4399;DHT22;2213;49.720;7.296;2023-04-01T00:16:33;9.80;99.90
4399;DHT22;2213;49.720;7.296;2023-04-01T00:19:04;9.80;99.90
4399;DHT22;2213;49.720;7.296;2023-04-01T00:21:33;9.80;99.90
4399;DHT22;2213;49.720;7.296;2023-04-01T00:24:04;9.80;99.90
4399;DHT22;2213;49.720;7.296;2023-04-01T00:26:34;9.90;99.90
4399;DHT22;2213;49.720;7.296;2023-04-01T00:29:04;9.80;99.90
4399;DHT22;2213;49.720;7.296;2023-04-01T00:31:37;9.80;99.90
4399;DHT22;2213;49.720;7.296;2023-04-01T00:34:07;9.80;99.90
4399;DHT22;2213;49.720;7.296;2023-04-01T00:36:36;9.80;99.90
4399;DHT22;2213;49.720;7.296;2023-04-01T00:39:06;9.80;99.90
4399;DHT22;2213;49.720;7.296;2023-04-01T00:41:36;9.70;99.90
4399;DHT22;2213;49.720;7.296;2023-04-01T00:44:20;9.70;99.90
4399;DHT22;2213;49.720;7.296;2023-04-01T00:46:54;9.80;99.90
4399;DHT22;2213;49.720;7.296;2023-04-01T00:49:26;9.80;99.90
4399;DHT22;2213;49.720;7.296;2023-04-01T00:52:00;9.80;99.90
4399;DHT22;2213;49.720;7.296;2023-04-01T00:54:33;9.70;99.90
4399;DHT22;2213;49.720;7.296;2023-04-01T00:57:07;9.70;99.90
4399;DHT22;2213;49.720;7.296;2023-04-01T00:59:43;9.70;99.90
4399;DHT22;2213;49.720;7.296;2023-04-01T01:02:16;9.60;99.90
4399;DHT22;2213;49.720;7.296;2023-04-01T01:04:46;9.60;99.90
4399;DHT22;2213;49.720;7.296;2023-04-01T01:07:23;9.60;99.90
4399;DHT22;2213;49.720;7.296;2023-04-01T01:10:03;9.60;99.90
4399;DHT22;2213;49.720;7.296;2023-04-01T01:12:46;9.60;99.90
4399;DHT22;2213;49.720;7.296;2023-04-01T01:15:26;9.60;99.90
4399;DHT22;2213;49.720;7.296;2023-04-01T01:18:05;9.50;99.90
4399;DHT22;2213;49.720;7.296;2023-04-01T01:24:23;9.50;99.90
4399;DHT22;2213;49.720;7.296;2023-04-01T01:27:03;9.50;99.90
4399;DHT22;2213;49.720;7.296;2023-04-01T01:29:59;9.50;99.90
4399;DHT22;2213;49.720;7.296;2023-04-01T01:33:29;9.50;99.90
4399;DHT22;2213;49.720;7.296;2023-04-01T01:36:17;9.50;99.90
4399;DHT22;2213;49.720;7.296;2023-04-01T01:38:50;9.50;99.90
4399;DHT22;2213;49.720;7.296;2023-04-01T01:41:21;9.50;99.90
4399;DHT22;2213;49.720;7.296;2023-04-01T01:43:56;9.50;99.90
4399;DHT22;2213;49.720;7.296;2023-04-01T01:46:31;9.50;99.90
4399;DHT22;2213;49.720;7.296;2023-04-01T01:49:01;9.40;99.90
4399;DHT22;2213;49.720;7.296;2023-04-01T01:51:34;9.40;99.90
4399;DHT22;2213;49.720;7.296;2023-04-01T01:54:04;9.50;99.90
4399;DHT22;2213;49.720;7.296;2023-04-01T01:56:35;9.50;99.90
4399;DHT22;2213;49.720;7.296;2023-04-01T01:59:08;9.50;99.90
4399;DHT22;2213;49.720;7.296;2023-04-01T02:01:42;9.40;99.90
4399;DHT22;2213;49.720;7.296;2023-04-01T02:04:16;9.40;99.90
4399;DHT22;2213;49.720;7.296;2023-04-01T02:06:52;9.40;99.90
4399;DHT22;2213;49.720;7.296;2023-04-01T02:09:24;9.40;99.90
4399;DHT22;2213;49.720;7.296;2023-04-01T02:11:56;9.40;99.90
4399;DHT22;2213;49.720;7.296;2023-04-01T02:14:29;9.40;99.90
4399;DHT22;2213;49.720;7.296;2023-04-01T02:17:08;9.40;99.90
4399;DHT22;2213;49.720;7.296;2023-04-01T02:19:43;9.50;99.90
4399;DHT22;2213;49.720;7.296;2023-04-01T02:22:22;9.50;99.90
4399;DHT22;2213;49.720;7.296;2023-04-01T02:24:58;9.40;99.90
4399;DHT22;2213;49.720;7.296;2023-04-01T02:27:32;9.40;99.90
4399;DHT22;2213;49.720;7.296;2023-04-01T02:30:02;9.40;99.90
4399;DHT22;2213;49.720;7.296;2023-04-01T02:32:34;9.30;99.90
4399;DHT22;2213;49.720;7.296;2023-04-01T02:35:09;9.40;99.90
4399;DHT22;2213;49.720;7.296;2023-04-01T02:37:42;9.40;99.90
4399;DHT22;2213;49.720;7.296;2023-04-01T02:40:13;9.40;99.90
4399;DHT22;2213;49.720;7.296;2023-04-01T02:42:43;9.40;99.90
4399;DHT22;2213;49.720;7.296;2023-04-01T02:45:14;9.30;99.90
4399;DHT22;2213;49.720;7.296;2023-04-01T02:47:43;9.30;99.90
4399;DHT22;2213;49.720;7.296;2023-04-01T02:50:12;9.30;99.90
4399;DHT22;2213;49.720;7.296;2023-04-01T02:52:44;9.20;99.90
4399;DHT22;2213;49.720;7.296;2023-04-01T02:55:14;9.20;99.90
4399;DHT22;2213;49.720;7.296;2023-04-01T02:57:45;9.20;99.90
4399;DHT22;2213;49.720;7.296;2023-04-01T03:00:16;9.30;99.90
4399;DHT22;2213;49.720;7.296;2023-04-01T03:02:46;9.20;99.90
4399;DHT22;2213;49.720;7.296;2023-04-01T03:05:17;9.10;99.90
4399;DHT22;2213;49.720;7.296;2023-04-01T03:07:48;9.10;99.90
4399;DHT22;2213;49.720;7.296;2023-04-01T03:10:18;9.20;99.90
4399;DHT22;2213;49.720;7.296;2023-04-01T03:12:48;9.10;99.90
4399;DHT22;2213;49.720;7.296;2023-04-01T03:15:18;9.20;99.90
4399;DHT22;2213;49.720;7.296;2023-04-01T03:17:48;9.20;99.90
4399;DHT22;2213;49.720;7.296;2023-04-01T03:20:18;9.20;99.90
4399;DHT22;2213;49.720;7.296;2023-04-01T03:22:50;9.20;99.90
4399;DHT22;2213;49.720;7.296;2023-04-01T03:25:21;9.20;99.90
4399;DHT22;2213;49.720;7.296;2023-04-01T03:27:51;9.20;99.90
4399;DHT22;2213;49.720;7.296;2023-04-01T03:30:21;9.10;99.90
4399;DHT22;2213;49.720;7.296;2023-04-01T03:32:51;9.10;99.90
4399;DHT22;2213;49.720;7.296;2023-04-01T03:35:21;9.00;99.90
4399;DHT22;2213;49.720;7.296;2023-04-01T03:37:53;9.00;99.90
4399;DHT22;2213;49.720;7.296;2023-04-01T03:40:23;8.90;99.90
4399;DHT22;2213;49.720;7.296;2023-04-01T03:42:54;9.00;99.90
4399;DHT22;2213;49.720;7.296;2023-04-01T03:45:24;9.00;99.90
4399;DHT22;2213;49.720;7.296;2023-04-01T03:47:54;9.00;99.90
4399;DHT22;2213;49.720;7.296;2023-04-01T03:50:24;9.00;99.90
4399;DHT22;2213;49.720;7.296;2023-04-01T03:52:57;9.00;99.90
4399;DHT22;2213;49.720;7.296;2023-04-01T03:55:27;9.00;99.90
4399;DHT22;2213;49.720;7.296;2023-04-01T03:57:58;9.00;99.90
4399;DHT22;2213;49.720;7.296;2023-04-01T04:00:29;8.90;99.90
4399;DHT22;2213;49.720;7.296;2023-04-01T04:02:59;8.90;99.90
4399;DHT22;2213;49.720;7.296;2023-04-01T04:05:29;8.90;99.90
4399;DHT22;2213;49.720;7.296;2023-04-01T04:08:02;9.00;99.90
4399;DHT22;2213;49.720;7.296;2023-04-01T04:10:32;9.00;99.90
4399;DHT22;2213;49.720;7.296;2023-04-01T04:13:03;9.00;99.90
4399;DHT22;2213;49.720;7.296;2023-04-01T04:15:34;9.00;99.90
4399;DHT22;2213;49.720;7.296;2023-04-01T04:18:04;8.90;99.90
4399;DHT22;2213;49.720;7.296;2023-04-01T04:20:34;8.90;99.90
4399;DHT22;2213;49.720;7.296;2023-04-01T04:23:06;8.90;99.90
4399;DHT22;2213;49.720;7.296;2023-04-01T04:25:37;8.90;99.90
4399;DHT22;2213;49.720;7.296;2023-04-01T04:28:07;8.80;99.90
4399;DHT22;2213;49.720;7.296;2023-04-01T04:30:38;8.80;99.90
4399;DHT22;2213;49.720;7.296;2023-04-01T04:33:09;8.80;99.90
4399;DHT22;2213;49.720;7.296;2023-04-01T04:35:40;8.90;99.90
4399;DHT22;2213;49.720;7.296;2023-04-01T04:38:11;8.80;99.90
4399;DHT22;2213;49.720;7.296;2023-04-01T04:40:43;8.80;99.90
4399;DHT22;2213;49.720;7.296;2023-04-01T04:43:15;8.80;99.90
4399;DHT22;2213;49.720;7.296;2023-04-01T04:45:46;8.80;99.90
4399;DHT22;2213;49.720;7.296;2023-04-01T04:48:16;8.80;99.90
4399;DHT22;2213;49.720;7.296;2023-04-01T04:50:48;8.80;99.90
4399;DHT22;2213;49.720;7.296;2023-04-01T04:53:20;8.80;99.90
4399;DHT22;2213;49.720;7.296;2023-04-01T04:55:50;8.80;99.90
4399;DHT22;2213;49.720;7.296;2023-04-01T04:58:20;8.80;99.90
4399;DHT22;2213;49.720;7.296;2023-04-01T05:00:50;8.80;99.90
4399;DHT22;2213;49.720;7.296;2023-04-01T05:03:20;8.80;99.90
4399;DHT22;2213;49.720;7.296;2023-04-01T05:05:52;8.80;99.90
4399;DHT22;2213;49.720;7.296;2023-04-01T05:08:23;8.80;99.90
4399;DHT22;2213;49.720;7.296;2023-04-01T05:10:54;8.70;99.90
4399;DHT22;2213;49.720;7.296;2023-04-01T05:13:23;8.70;99.90
4399;DHT22;2213;49.720;7.296;2023-04-01T05:15:53;8.80;99.90
4399;DHT22;2213;49.720;7.296;2023-04-01T05:18:23;8.80;99.90
4399;DHT22;2213;49.720;7.296;2023-04-01T05:20:54;8.80;99.90
4399;DHT22;2213;49.720;7.296;2023-04-01T05:23:26;8.80;99.90
4399;DHT22;2213;49.720;7.296;2023-04-01T05:25:55;8.80;99.90
4399;DHT22;2213;49.720;7.296;2023-04-01T05:28:26;8.80;99.90
4399;DHT22;2213;49.720;7.296;2023-04-01T05:30:58;8.80;99.90
4399;DHT22;2213;49.720;7.296;2023-04-01T05:33:29;8.80;99.90
4399;DHT22;2213;49.720;7.296;2023-04-01T05:36:06;8.80;99.90
4399;DHT22;2213;49.720;7.296;2023-04-01T05:38:39;8.60;99.90
4399;DHT22;2213;49.720;7.296;2023-04-01T05:41:09;8.80;99.90
4399;DHT22;2213;49.720;7.296;2023-04-01T05:43:40;8.80;99.90
4399;DHT22;2213;49.720;7.296;2023-04-01T05:46:10;8.80;99.90
4399;DHT22;2213;49.720;7.296;2023-04-01T05:48:40;8.80;99.90
4399;DHT22;2213;49.720;7.296;2023-04-01T05:51:12;8.80;99.90
4399;DHT22;2213;49.720;7.296;2023-04-01T05:53:44;8.80;99.90
4399;DHT22;2213;49.720;7.296;2023-04-01T05:56:14;8.80;99.90
4399;DHT22;2213;49.720;7.296;2023-04-01T05:58:43;8.80;99.90
4399;DHT22;2213;49.720;7.296;2023-04-01T06:01:19;8.90;99.90
4399;DHT22;2213;49.720;7.296;2023-04-01T06:03:49;8.80;99.90
4399;DHT22;2213;49.720;7.296;2023-04-01T06:06:23;8.80;99.90
4399;DHT22;2213;49.720;7.296;2023-04-01T06:08:56;8.80;99.90
4399;DHT22;2213;49.720;7.296;2023-04-01T06:11:37;8.80;99.90
4399;DHT22;2213;49.720;7.296;2023-04-01T06:14:23;8.80;99.90
4399;DHT22;2213;49.720;7.296;2023-04-01T06:17:13;8.80;99.90
4399;DHT22;2213;49.720;7.296;2023-04-01T06:19:56;8.80;99.90
4399;DHT22;2213;49.720;7.296;2023-04-01T06:23:18;8.90;99.90
4399;DHT22;2213;49.720;7.296;2023-04-01T06:26:17;8.90;99.90
4399;DHT22;2213;49.720;7.296;2023-04-01T06:29:26;8.80;99.90
4399;DHT22;2213;49.720;7.296;2023-04-01T06:32:26;8.80;99.90
4399;DHT22;2213;49.720;7.296;2023-04-01T06:35:39;8.90;99.90
4399;DHT22;2213;49.720;7.296;2023-04-01T06:38:49;8.90;99.90
4399;DHT22;2213;49.720;7.296;2023-04-01T06:41:59;8.90;99.90
4399;DHT22;2213;49.720;7.296;2023-04-01T06:45:31;9.00;99.90
4399;DHT22;2213;49.720;7.296;2023-04-01T06:48:35;9.00;99.90
4399;DHT22;2213;49.720;7.296;2023-04-01T06:51:30;9.00;99.90
4399;DHT22;2213;49.720;7.296;2023-04-01T06:54:10;9.10;99.90
4399;DHT22;2213;49.720;7.296;2023-04-01T06:56:48;9.10;99.90
4399;DHT22;2213;49.720;7.296;2023-04-01T06:59:28;9.10;99.90
4399;DHT22;2213;49.720;7.296;2023-04-01T07:02:05;9.00;99.90
4399;DHT22;2213;49.720;7.296;2023-04-01T07:04:49;9.10;99.90
4399;DHT22;2213;49.720;7.296;2023-04-01T07:07:29;9.10;99.90
4399;DHT22;2213;49.720;7.296;2023-04-01T07:10:05;9.10;99.90
4399;DHT22;2213;49.720;7.296;2023-04-01T07:12:48;9.10;99.90
4399;DHT22;2213;49.720;7.296;2023-04-01T07:15:30;9.20;99.90
4399;DHT22;2213;49.720;7.296;2023-04-01T07:18:10;9.10;99.90
4399;DHT22;2213;49.720;7.296;2023-04-01T07:20:45;9.20;99.90
4399;DHT22;2213;49.720;7.296;2023-04-01T07:23:22;9.20;99.90
4399;DHT22;2213;49.720;7.296;2023-04-01T07:25:56;9.20;99.90
4399;DHT22;2213;49.720;7.296;2023-04-01T07:28:32;9.20;99.90
4399;DHT22;2213;49.720;7.296;2023-04-01T07:31:11;9.20;99.90
4399;DHT22;2213;49.720;7.296;2023-04-01T07:33:55;9.20;99.90
4399;DHT22;2213;49.720;7.296;2023-04-01T07:36:35;9.20;99.90
4399;DHT22;2213;49.720;7.296;2023-04-01T07:39:20;9.30;99.90
4399;DHT22;2213;49.720;7.296;2023-04-01T07:42:02;9.30;99.90
4399;DHT22;2213;49.720;7.296;2023-04-01T07:44:45;9.20;99.90
4399;DHT22;2213;49.720;7.296;2023-04-01T07:47:35;9.30;99.90
4399;DHT22;2213;49.720;7.296;2023-04-01T07:50:26;9.30;99.90
4399;DHT22;2213;49.720;7.296;2023-04-01T07:53:04;9.30;99.90
4399;DHT22;2213;49.720;7.296;2023-04-01T07:55:45;9.40;99.90
4399;DHT22;2213;49.720;7.296;2023-04-01T07:58:24;9.40;99.90
4399;DHT22;2213;49.720;7.296;2023-04-01T08:01:06;9.50;99.90
4399;DHT22;2213;49.720;7.296;2023-04-01T08:04:16;9.60;99.90
4399;DHT22;2213;49.720;7.296;2023-04-01T08:06:59;9.60;99.90
4399;DHT22;2213;49.720;7.296;2023-04-01T08:09:43;9.60;99.90
4399;DHT22;2213;49.720;7.296;2023-04-01T08:12:28;9.60;99.90
4399;DHT22;2213;49.720;7.296;2023-04-01T08:15:18;9.70;99.90
4399;DHT22;2213;49.720;7.296;2023-04-01T08:18:03;9.70;99.90
4399;DHT22;2213;49.720;7.296;2023-04-01T08:20:44;9.60;99.90
4399;DHT22;2213;49.720;7.296;2023-04-01T08:23:18;9.70;99.90
4399;DHT22;2213;49.720;7.296;2023-04-01T08:25:56;9.80;99.90
4399;DHT22;2213;49.720;7.296;2023-04-01T08:28:35;9.80;99.90
4399;DHT22;2213;49.720;7.296;2023-04-01T08:31:12;9.70;99.90
4399;DHT22;2213;49.720;7.296;2023-04-01T08:33:46;9.80;99.90
4399;DHT22;2213;49.720;7.296;2023-04-01T08:36:24;9.80;99.90
4399;DHT22;2213;49.720;7.296;2023-04-01T08:39:06;9.80;99.90
4399;DHT22;2213;49.720;7.296;2023-04-01T08:41:58;9.80;99.90
4399;DHT22;2213;49.720;7.296;2023-04-01T08:48:40;9.80;99.90
4399;DHT22;2213;49.720;7.296;2023-04-01T08:57:58;9.90;99.90
4399;DHT22;2213;49.720;7.296;2023-04-01T09:00:46;9.90;99.90
4399;DHT22;2213;49.720;7.296;2023-04-01T09:06:32;9.90;99.90
4399;DHT22;2213;49.720;7.296;2023-04-01T09:09:44;10.00;99.90
4399;DHT22;2213;49.720;7.296;2023-04-01T09:12:42;10.00;99.90
4399;DHT22;2213;49.720;7.296;2023-04-01T09:15:55;10.00;99.90
4399;DHT22;2213;49.720;7.296;2023-04-01T09:25:20;10.10;99.90
4399;DHT22;2213;49.720;7.296;2023-04-01T09:28:00;10.10;99.90
4399;DHT22;2213;49.720;7.296;2023-04-01T09:34:21;10.20;99.90
4399;DHT22;2213;49.720;7.296;2023-04-01T09:37:18;10.20;99.90
4399;DHT22;2213;49.720;7.296;2023-04-01T09:40:16;10.10;99.90
4399;DHT22;2213;49.720;7.296;2023-04-01T09:43:06;10.10;99.90
4399;DHT22;2213;49.720;7.296;2023-04-01T09:46:14;10.20;99.90
4399;DHT22;2213;49.720;7.296;2023-04-01T09:52:26;10.30;99.90
4399;DHT22;2213;49.720;7.296;2023-04-01T09:58:53;10.30;99.90
4399;DHT22;2213;49.720;7.296;2023-04-01T10:02:08;10.30;99.90
4399;DHT22;2213;49.720;7.296;2023-04-01T10:09:02;10.40;99.90
4399;DHT22;2213;49.720;7.296;2023-04-01T10:22:35;10.40;99.90
4399;DHT22;2213;49.720;7.296;2023-04-01T10:28:51;10.40;99.90
4399;DHT22;2213;49.720;7.296;2023-04-01T10:31:56;10.50;99.90
4399;DHT22;2213;49.720;7.296;2023-04-01T10:35:28;10.70;99.90
4399;DHT22;2213;49.720;7.296;2023-04-01T10:45:54;10.50;99.90
4399;DHT22;2213;49.720;7.296;2023-04-01T10:49:16;10.60;99.90
4399;DHT22;2213;49.720;7.296;2023-04-01T11:09:26;10.90;99.90
4399;DHT22;2213;49.720;7.296;2023-04-01T11:12:50;11.00;99.90
4399;DHT22;2213;49.720;7.296;2023-04-01T11:19:38;11.00;99.90
4399;DHT22;2213;49.720;7.296;2023-04-01T11:23:12;11.00;99.90
4399;DHT22;2213;49.720;7.296;2023-04-01T11:26:07;11.00;99.90
4399;DHT22;2213;49.720;7.296;2023-04-01T11:29:08;11.10;99.90
4399;DHT22;2213;49.720;7.296;2023-04-01T11:32:05;11.10;99.90
4399;DHT22;2213;49.720;7.296;2023-04-01T11:34:55;11.00;99.90
4399;DHT22;2213;49.720;7.296;2023-04-01T11:37:41;11.10;99.90
4399;DHT22;2213;49.720;7.296;2023-04-01T11:40:27;11.10;99.90
4399;DHT22;2213;49.720;7.296;2023-04-01T11:43:14;11.10;99.90
4399;DHT22;2213;49.720;7.296;2023-04-01T11:46:03;11.10;99.90
4399;DHT22;2213;49.720;7.296;2023-04-01T11:48:49;11.10;99.90
4399;DHT22;2213;49.720;7.296;2023-04-01T11:51:51;11.20;99.90
4399;DHT22;2213;49.720;7.296;2023-04-01T11:54:45;11.10;99.90
4399;DHT22;2213;49.720;7.296;2023-04-01T11:58:08;11.20;99.90
4399;DHT22;2213;49.720;7.296;2023-04-01T12:01:17;11.30;99.90
4399;DHT22;2213;49.720;7.296;2023-04-01T12:08:01;11.20;99.90
4399;DHT22;2213;49.720;7.296;2023-04-01T12:10:42;11.20;99.90
4399;DHT22;2213;49.720;7.296;2023-04-01T12:13:27;11.30;99.90
4399;DHT22;2213;49.720;7.296;2023-04-01T12:16:16;11.20;99.90
4399;DHT22;2213;49.720;7.296;2023-04-01T12:18:59;11.20;99.90
4399;DHT22;2213;49.720;7.296;2023-04-01T12:21:38;11.20;99.90
4399;DHT22;2213;49.720;7.296;2023-04-01T12:24:33;11.10;99.90
4399;DHT22;2213;49.720;7.296;2023-04-01T12:30:34;11.20;99.90
4399;DHT22;2213;49.720;7.296;2023-04-01T12:33:32;11.20;99.90
4399;DHT22;2213;49.720;7.296;2023-04-01T12:36:24;11.30;99.90
4399;DHT22;2213;49.720;7.296;2023-04-01T12:39:43;11.20;99.90
4399;DHT22;2213;49.720;7.296;2023-04-01T12:42:46;11.10;99.90
4399;DHT22;2213;49.720;7.296;2023-04-01T12:45:29;11.10;99.90
4399;DHT22;2213;49.720;7.296;2023-04-01T12:51:34;11.00;99.90
4399;DHT22;2213;49.720;7.296;2023-04-01T12:54:36;11.00;99.90
4399;DHT22;2213;49.720;7.296;2023-04-01T12:58:20;10.90;99.90
4399;DHT22;2213;49.720;7.296;2023-04-01T13:05:14;10.80;99.90
4399;DHT22;2213;49.720;7.296;2023-04-01T13:08:09;10.70;99.90
4399;DHT22;2213;49.720;7.296;2023-04-01T13:11:09;10.70;99.90
4399;DHT22;2213;49.720;7.296;2023-04-01T13:14:04;10.70;99.90
4399;DHT22;2213;49.720;7.296;2023-04-01T13:17:02;10.60;99.90
4399;DHT22;2213;49.720;7.296;2023-04-01T13:19:45;10.70;99.90
4399;DHT22;2213;49.720;7.296;2023-04-01T13:22:42;10.80;99.90
4399;DHT22;2213;49.720;7.296;2023-04-01T13:25:26;10.80;99.90
4399;DHT22;2213;49.720;7.296;2023-04-01T13:28:15;10.80;99.90
4399;DHT22;2213;49.720;7.296;2023-04-01T13:30:55;10.80;99.90
4399;DHT22;2213;49.720;7.296;2023-04-01T13:33:40;10.90;99.90
4399;DHT22;2213;49.720;7.296;2023-04-01T13:36:24;10.90;99.90
4399;DHT22;2213;49.720;7.296;2023-04-01T13:42:12;11.00;99.90
4399;DHT22;2213;49.720;7.296;2023-04-01T13:44:53;11.00;99.90
4399;DHT22;2213;49.720;7.296;2023-04-01T13:47:53;11.00;99.90
4399;DHT22;2213;49.720;7.296;2023-04-01T13:50:56;11.10;99.90
4399;DHT22;2213;49.720;7.296;2023-04-01T13:54:01;11.10;99.90
4399;DHT22;2213;49.720;7.296;2023-04-01T13:56:54;11.10;99.90
4399;DHT22;2213;49.720;7.296;2023-04-01T14:00:03;11.10;99.90
4399;DHT22;2213;49.720;7.296;2023-04-01T14:02:51;11.00;99.90
4399;DHT22;2213;49.720;7.296;2023-04-01T14:05:43;11.00;99.90
4399;DHT22;2213;49.720;7.296;2023-04-01T14:08:36;11.10;99.90
4399;DHT22;2213;49.720;7.296;2023-04-01T14:11:30;11.00;99.90
4399;DHT22;2213;49.720;7.296;2023-04-01T14:14:17;11.00;99.90
4399;DHT22;2213;49.720;7.296;2023-04-01T14:17:07;11.00;99.90
4399;DHT22;2213;49.720;7.296;2023-04-01T14:20:10;11.10;99.90
4399;DHT22;2213;49.720;7.296;2023-04-01T14:23:42;11.00;99.90
4399;DHT22;2213;49.720;7.296;2023-04-01T14:26:56;11.00;99.90
4399;DHT22;2213;49.720;7.296;2023-04-01T14:29:43;11.00;99.90
4399;DHT22;2213;49.720;7.296;2023-04-01T14:32:34;11.00;99.90
4399;DHT22;2213;49.720;7.296;2023-04-01T14:35:25;11.00;99.90
4399;DHT22;2213;49.720;7.296;2023-04-01T14:38:24;11.00;99.90
4399;DHT22;2213;49.720;7.296;2023-04-01T14:41:06;10.90;99.90
4399;DHT22;2213;49.720;7.296;2023-04-01T14:44:05;11.00;99.90
4399;DHT22;2213;49.720;7.296;2023-04-01T14:50:18;11.10;99.90
4399;DHT22;2213;49.720;7.296;2023-04-01T14:52:57;11.10;99.90
4399;DHT22;2213;49.720;7.296;2023-04-01T14:55:49;11.20;99.90
4399;DHT22;2213;49.720;7.296;2023-04-01T14:58:22;11.20;99.90
4399;DHT22;2213;49.720;7.296;2023-04-01T15:01:00;11.20;99.90
4399;DHT22;2213;49.720;7.296;2023-04-01T15:03:53;11.20;99.90
4399;DHT22;2213;49.720;7.296;2023-04-01T15:07:02;11.20;99.90
4399;DHT22;2213;49.720;7.296;2023-04-01T15:09:52;11.10;99.90
4399;DHT22;2213;49.720;7.296;2023-04-01T15:12:39;11.10;99.90
4399;DHT22;2213;49.720;7.296;2023-04-01T15:15:27;11.00;99.90
4399;DHT22;2213;49.720;7.296;2023-04-01T15:18:20;11.00;99.90
4399;DHT22;2213;49.720;7.296;2023-04-01T15:21:17;11.10;99.90
4399;DHT22;2213;49.720;7.296;2023-04-01T15:23:59;11.10;99.90
4399;DHT22;2213;49.720;7.296;2023-04-01T15:30:18;11.10;99.90
4399;DHT22;2213;49.720;7.296;2023-04-01T15:33:22;11.00;99.90
4399;DHT22;2213;49.720;7.296;2023-04-01T15:36:09;11.10;99.90
4399;DHT22;2213;49.720;7.296;2023-04-01T15:38:50;11.10;99.90
4399;DHT22;2213;49.720;7.296;2023-04-01T15:41:27;11.00;99.90
4399;DHT22;2213;49.720;7.296;2023-04-01T15:47:39;11.00;99.90
4399;DHT22;2213;49.720;7.296;2023-04-01T15:50:29;11.10;99.90
4399;DHT22;2213;49.720;7.296;2023-04-01T15:53:43;11.10;99.90
4399;DHT22;2213;49.720;7.296;2023-04-01T15:56:30;11.10;99.90
4399;DHT22;2213;49.720;7.296;2023-04-01T15:59:28;11.00;99.90
4399;DHT22;2213;49.720;7.296;2023-04-01T16:02:36;11.10;99.90
4399;DHT22;2213;49.720;7.296;2023-04-01T16:05:25;11.00;99.90
4399;DHT22;2213;49.720;7.296;2023-04-01T16:11:25;11.00;99.90
4399;DHT22;2213;49.720;7.296;2023-04-01T16:14:15;11.00;99.90
4399;DHT22;2213;49.720;7.296;2023-04-01T16:16:59;10.90;99.90
4399;DHT22;2213;49.720;7.296;2023-04-01T16:19:45;10.90;99.90
4399;DHT22;2213;49.720;7.296;2023-04-01T16:22:23;10.90;99.90
4399;DHT22;2213;49.720;7.296;2023-04-01T16:25:17;10.90;99.90
4399;DHT22;2213;49.720;7.296;2023-04-01T16:28:07;10.90;99.90
4399;DHT22;2213;49.720;7.296;2023-04-01T16:30:55;10.70;99.90
4399;DHT22;2213;49.720;7.296;2023-04-01T16:33:38;10.70;99.90
4399;DHT22;2213;49.720;7.296;2023-04-01T16:36:22;10.70;99.90
4399;DHT22;2213;49.720;7.296;2023-04-01T16:42:13;10.80;99.90
4399;DHT22;2213;49.720;7.296;2023-04-01T16:44:54;10.80;99.90
4399;DHT22;2213;49.720;7.296;2023-04-01T16:47:31;10.80;99.90
4399;DHT22;2213;49.720;7.296;2023-04-01T16:50:14;10.80;99.90
4399;DHT22;2213;49.720;7.296;2023-04-01T16:53:00;10.80;99.90
4399;DHT22;2213;49.720;7.296;2023-04-01T16:55:46;10.60;99.90
4399;DHT22;2213;49.720;7.296;2023-04-01T16:58:24;10.50;99.90
4399;DHT22;2213;49.720;7.296;2023-04-01T17:01:02;10.60;99.90
4399;DHT22;2213;49.720;7.296;2023-04-01T17:03:39;10.60;99.90
4399;DHT22;2213;49.720;7.296;2023-04-01T17:06:19;10.60;99.90
4399;DHT22;2213;49.720;7.296;2023-04-01T17:09:07;10.50;99.90
4399;DHT22;2213;49.720;7.296;2023-04-01T17:11:56;10.50;99.90
4399;DHT22;2213;49.720;7.296;2023-04-01T17:14:37;10.60;99.90
4399;DHT22;2213;49.720;7.296;2023-04-01T17:17:37;10.60;99.90
4399;DHT22;2213;49.720;7.296;2023-04-01T17:20:31;10.60;99.90
4399;DHT22;2213;49.720;7.296;2023-04-01T17:23:23;10.60;99.90
4399;DHT22;2213;49.720;7.296;2023-04-01T17:26:26;10.60;99.90
4399;DHT22;2213;49.720;7.296;2023-04-01T17:29:12;10.60;99.90
4399;DHT22;2213;49.720;7.296;2023-04-01T17:31:55;10.60;99.90
4399;DHT22;2213;49.720;7.296;2023-04-01T17:34:51;10.60;99.90
4399;DHT22;2213;49.720;7.296;2023-04-01T17:37:43;10.60;99.90
4399;DHT22;2213;49.720;7.296;2023-04-01T17:40:32;10.50;99.90
4399;DHT22;2213;49.720;7.296;2023-04-01T17:43:19;10.50;99.90
4399;DHT22;2213;49.720;7.296;2023-04-01T17:45:54;10.60;99.90
4399;DHT22;2213;49.720;7.296;2023-04-01T17:48:35;10.60;99.90
4399;DHT22;2213;49.720;7.296;2023-04-01T17:51:20;10.50;99.90
4399;DHT22;2213;49.720;7.296;2023-04-01T17:54:03;10.50;99.90
4399;DHT22;2213;49.720;7.296;2023-04-01T17:56:54;10.40;99.90
4399;DHT22;2213;49.720;7.296;2023-04-01T17:59:36;10.40;99.90
4399;DHT22;2213;49.720;7.296;2023-04-01T18:02:24;10.40;99.90
4399;DHT22;2213;49.720;7.296;2023-04-01T18:08:16;10.40;99.90
4399;DHT22;2213;49.720;7.296;2023-04-01T18:11:00;10.30;99.90
4399;DHT22;2213;49.720;7.296;2023-04-01T18:14:00;10.30;99.90
4399;DHT22;2213;49.720;7.296;2023-04-01T18:17:08;10.30;99.90
4399;DHT22;2213;49.720;7.296;2023-04-01T18:23:20;10.30;99.90
4399;DHT22;2213;49.720;7.296;2023-04-01T18:26:05;10.30;99.90
4399;DHT22;2213;49.720;7.296;2023-04-01T18:28:41;10.40;99.90
4399;DHT22;2213;49.720;7.296;2023-04-01T18:31:17;10.30;99.90
4399;DHT22;2213;49.720;7.296;2023-04-01T18:33:59;10.30;99.90
4399;DHT22;2213;49.720;7.296;2023-04-01T18:36:41;10.30;99.90
4399;DHT22;2213;49.720;7.296;2023-04-01T18:39:30;10.30;99.90
4399;DHT22;2213;49.720;7.296;2023-04-01T18:42:14;10.30;99.90
4399;DHT22;2213;49.720;7.296;2023-04-01T18:44:53;10.30;99.90
4399;DHT22;2213;49.720;7.296;2023-04-01T18:47:38;10.30;99.90
4399;DHT22;2213;49.720;7.296;2023-04-01T18:50:21;10.30;99.90
4399;DHT22;2213;49.720;7.296;2023-04-01T18:52:57;10.30;99.90
4399;DHT22;2213;49.720;7.296;2023-04-01T18:55:40;10.30;99.90
4399;DHT22;2213;49.720;7.296;2023-04-01T18:58:23;10.30;99.90
4399;DHT22;2213;49.720;7.296;2023-04-01T19:01:08;10.20;99.90
4399;DHT22;2213;49.720;7.296;2023-04-01T19:03:52;10.30;99.90
4399;DHT22;2213;49.720;7.296;2023-04-01T19:06:33;10.30;99.90
4399;DHT22;2213;49.720;7.296;2023-04-01T19:09:17;10.30;99.90
4399;DHT22;2213;49.720;7.296;2023-04-01T19:15:11;10.20;99.90
4399;DHT22;2213;49.720;7.296;2023-04-01T19:18:02;10.20;99.90
4399;DHT22;2213;49.720;7.296;2023-04-01T19:20:53;10.20;99.90
4399;DHT22;2213;49.720;7.296;2023-04-01T19:26:42;10.20;99.90
4399;DHT22;2213;49.720;7.296;2023-04-01T19:29:28;10.10;99.90
4399;DHT22;2213;49.720;7.296;2023-04-01T19:32:16;10.10;99.90
4399;DHT22;2213;49.720;7.296;2023-04-01T19:35:09;10.10;99.90
4399;DHT22;2213;49.720;7.296;2023-04-01T19:37:51;10.10;99.90
4399;DHT22;2213;49.720;7.296;2023-04-01T19:40:48;10.10;99.90
4399;DHT22;2213;49.720;7.296;2023-04-01T19:43:36;10.10;99.90
4399;DHT22;2213;49.720;7.296;2023-04-01T19:46:19;10.00;99.90
4399;DHT22;2213;49.720;7.296;2023-04-01T19:49:14;10.00;99.90
4399;DHT22;2213;49.720;7.296;2023-04-01T19:51:59;10.00;99.90
4399;DHT22;2213;49.720;7.296;2023-04-01T19:54:38;10.00;99.90
4399;DHT22;2213;49.720;7.296;2023-04-01T19:57:22;10.00;99.90
4399;DHT22;2213;49.720;7.296;2023-04-01T20:00:03;9.90;99.90
4399;DHT22;2213;49.720;7.296;2023-04-01T20:02:50;10.00;99.90
4399;DHT22;2213;49.720;7.296;2023-04-01T20:05:55;10.00;99.90